DBV weather

Dubrovnik Airport
Dubrovnik, Dubrovnik-Neretva County, Croatia

Public forecast

Using degrees Celsius for public forecast. Weather courtesy of forecast.io.

Current aviation weather report (METAR) for Dubrovnik Airport

Retrieved 2019/11/12 17:30 UTC (0 seconds ago):

LDDU 121730Z 13029G39KT 9999 FEW035 SCT055 17/11 Q1005 WS R11 NOSIG

Aviation forecast (TAF) for Dubrovnik Airport

Retrieved 2019/11/12 12:27 UTC (5 hours ago):

TAF LDDU 121125Z 1212/1312 14025G35KT 9999 RA SCT015 BKN030 TX17/1212Z TN15/1305Z TEMPO 1212/1221 14035G45KT PROB30 TEMPO 1212/1221 3000 TSRA BKN010 SCT020CB PROB40 TEMPO 1308/1312 4000 TSRA SCT010 FEW020CB BKN025